createdAt,value
2023-05-02T00:01:00.268Z,101226.88
2023-05-02T00:03:29.599Z,101230.97
2023-05-02T00:05:57.430Z,101231.34
2023-05-02T00:08:25.457Z,101215.03
2023-05-02T00:10:53.638Z,101229.97
2023-05-02T00:13:20.970Z,101229.63
2023-05-02T00:15:48.889Z,101219.28
2023-05-02T00:18:17.097Z,101215.75
2023-05-02T00:20:45.348Z,101226.00
2023-05-02T00:23:14.552Z,101224.28
2023-05-02T00:25:48.400Z,101216.91
2023-05-02T00:28:16.459Z,101218.72
2023-05-02T00:30:47.498Z,101216.91
2023-05-02T00:33:16.079Z,101204.75
2023-05-02T00:35:43.652Z,101200.53
2023-05-02T00:38:11.106Z,101218.25
2023-05-02T00:40:47.031Z,101204.16
2023-05-02T00:43:15.346Z,101201.47
2023-05-02T00:45:44.224Z,101202.44
2023-05-02T00:48:12.278Z,101199.31
2023-05-02T00:50:45.887Z,101186.53
2023-05-02T00:53:13.653Z,101176.53
2023-05-02T00:55:41.411Z,101174.00
2023-05-02T00:58:17.840Z,101169.78
2023-05-02T01:01:14.028Z,101164.13
2023-05-02T01:04:06.817Z,101160.13
2023-05-02T01:06:43.845Z,101157.59
2023-05-02T01:09:36.946Z,101152.75
2023-05-02T01:12:11.562Z,101151.50
2023-05-02T01:14:43.644Z,101135.03
2023-05-02T01:17:14.138Z,101130.19
2023-05-02T01:19:44.313Z,101134.66
2023-05-02T01:22:12.329Z,101128.50
2023-05-02T01:25:01.774Z,101134.03
2023-05-02T01:27:44.398Z,101128.34
2023-05-02T01:30:13.535Z,101121.59
2023-05-02T01:32:42.817Z,101128.22
2023-05-02T01:35:12.072Z,101124.72
2023-05-02T01:37:40.025Z,101125.34
2023-05-02T01:40:11.366Z,101134.72
2023-05-02T01:42:41.814Z,101119.28
2023-05-02T01:45:10.085Z,101101.56
2023-05-02T01:47:37.875Z,101110.81
2023-05-02T01:50:12.858Z,101101.09
2023-05-02T01:53:19.468Z,101098.91
2023-05-02T01:55:47.089Z,101084.34
2023-05-02T01:58:15.468Z,101084.13
2023-05-02T02:00:45.902Z,101065.06
2023-05-02T02:03:14.356Z,101068.69
2023-05-02T02:05:42.353Z,101053.28
2023-05-02T02:08:10.044Z,101056.75
2023-05-02T02:10:42.261Z,101062.28
2023-05-02T02:13:20.519Z,101073.56
2023-05-02T02:15:49.815Z,101066.19
2023-05-02T02:18:43.988Z,101064.13
2023-05-02T02:21:12.254Z,101058.25
2023-05-02T02:23:40.161Z,101045.84
2023-05-02T02:26:07.722Z,101030.25
2023-05-02T02:28:35.540Z,101042.22
2023-05-02T02:31:03.068Z,101033.94
2023-05-02T02:33:31.221Z,101025.41
2023-05-02T02:36:03.440Z,101036.41
2023-05-02T02:38:38.451Z,101033.63
2023-05-02T02:41:28.357Z,101030.03
2023-05-02T02:44:25.916Z,101025.19
2023-05-02T02:47:17.007Z,101035.16
2023-05-02T02:50:40.122Z,101030.94
2023-05-02T02:53:10.290Z,101020.84
2023-05-02T02:56:14.308Z,101017.63
2023-05-02T02:59:04.520Z,101008.94
2023-05-02T03:01:33.910Z,101007.25
2023-05-02T03:04:01.858Z,101012.31
2023-05-02T03:06:29.670Z,101002.56
2023-05-02T03:08:57.360Z,100993.94
2023-05-02T03:11:24.922Z,100997.78
2023-05-02T03:13:53.673Z,101005.72
2023-05-02T03:16:35.172Z,100996.81
2023-05-02T03:19:05.710Z,101007.03
2023-05-02T03:21:33.702Z,100994.75
2023-05-02T03:24:03.266Z,101002.56
2023-05-02T03:26:32.415Z,100990.44
2023-05-02T03:29:00.111Z,100986.31
2023-05-02T03:31:29.220Z,101005.19
2023-05-02T03:33:57.716Z,101002.50
2023-05-02T03:36:26.756Z,100993.84
2023-05-02T03:38:54.525Z,100985.47
2023-05-02T03:41:22.780Z,100981.41
2023-05-02T03:43:51.728Z,100997.53
2023-05-02T03:46:19.386Z,100987.41
2023-05-02T03:48:48.443Z,100990.16
2023-05-02T03:51:16.289Z,100988.47
2023-05-02T03:53:44.410Z,100983.91
2023-05-02T03:56:12.222Z,100984.25
2023-05-02T03:58:41.383Z,100987.47
2023-05-02T04:01:17.259Z,100991.34
2023-05-02T04:03:45.458Z,100984.13
2023-05-02T04:06:14.496Z,100983.28
2023-05-02T04:08:43.785Z,100975.00
2023-05-02T04:11:12.727Z,100973.66
2023-05-02T04:13:40.182Z,100971.28
2023-05-02T04:16:08.388Z,100963.09
2023-05-02T04:18:36.121Z,100968.41
2023-05-02T04:21:05.184Z,100977.38
2023-05-02T04:23:34.495Z,100968.47
2023-05-02T04:26:02.843Z,100976.97
2023-05-02T04:28:33.720Z,100976.13
2023-05-02T04:31:03.147Z,100963.47
2023-05-02T04:33:31.966Z,100965.16
2023-05-02T04:35:59.603Z,100969.00
2023-05-02T04:38:29.449Z,100965.03
2023-05-02T04:41:00.835Z,100970.69
2023-05-02T04:43:37.017Z,100975.59
2023-05-02T04:46:07.058Z,100968.69
2023-05-02T04:48:35.150Z,100977.16
2023-05-02T04:51:03.068Z,100967.63
2023-05-02T04:53:30.564Z,100972.53
2023-05-02T04:56:00.011Z,100973.59
2023-05-02T04:58:31.888Z,100975.75
2023-05-02T05:00:59.322Z,100965.78
2023-05-02T05:03:27.282Z,100963.63
2023-05-02T05:05:56.518Z,100959.41
2023-05-02T05:08:25.923Z,100956.88
2023-05-02T05:10:53.754Z,100964.53
2023-05-02T05:13:23.481Z,100962.72
2023-05-02T05:15:52.157Z,100963.97
2023-05-02T05:18:19.855Z,100966.09
2023-05-02T05:20:48.777Z,100958.28
2023-05-02T05:23:17.635Z,100952.16
2023-05-02T05:25:45.832Z,100959.56
2023-05-02T05:28:13.572Z,100957.25
2023-05-02T05:30:41.643Z,100964.03
2023-05-02T05:33:09.660Z,100960.03
2023-05-02T05:35:38.995Z,100960.88
2023-05-02T05:38:09.092Z,100958.97
2023-05-02T05:40:38.407Z,100961.72
2023-05-02T05:43:05.800Z,100958.84
2023-05-02T05:45:34.655Z,100947.47
2023-05-02T05:48:02.347Z,100961.81
2023-05-02T05:50:30.355Z,100963.50
2023-05-02T05:52:58.125Z,100959.28
2023-05-02T05:55:25.697Z,100967.56
2023-05-02T05:57:53.438Z,100981.75
2023-05-02T06:00:21.028Z,100966.50
2023-05-02T06:02:49.547Z,100974.53
2023-05-02T06:05:17.160Z,100968.31
2023-05-02T06:07:44.686Z,100968.09
2023-05-02T06:10:12.329Z,100960.03
2023-05-02T06:12:41.344Z,100963.66
2023-05-02T06:15:11.023Z,100976.34
2023-05-02T06:17:38.641Z,100982.03
2023-05-02T06:20:07.932Z,100983.09
2023-05-02T06:22:35.815Z,100983.72
2023-05-02T06:25:06.619Z,100983.09
2023-05-02T06:27:35.499Z,100986.03
2023-05-02T06:30:04.349Z,100989.56
2023-05-02T06:32:34.972Z,100987.78
2023-05-02T06:35:03.050Z,100994.91
2023-05-02T06:37:35.554Z,101007.59
2023-05-02T06:40:05.709Z,101004.31
2023-05-02T06:42:35.274Z,101001.38
2023-05-02T06:45:02.989Z,101002.16
2023-05-02T06:47:40.533Z,101005.34
2023-05-02T06:50:09.103Z,101008.38
2023-05-02T06:52:39.441Z,101012.31
2023-05-02T06:55:07.841Z,101004.13
2023-05-02T06:57:37.724Z,101012.72
2023-05-02T07:00:06.490Z,101006.97
2023-05-02T07:02:34.126Z,101025.41
2023-05-02T07:05:03.323Z,101025.31
2023-05-02T07:07:31.958Z,101029.44
2023-05-02T07:10:00.573Z,101040.28
2023-05-02T07:12:29.322Z,101042.09
2023-05-02T07:14:56.997Z,101035.63
2023-05-02T07:17:26.437Z,101040.78
2023-05-02T07:19:54.291Z,101044.81
2023-05-02T07:22:22.048Z,101045.44
2023-05-02T07:24:50.222Z,101046.50
2023-05-02T07:27:20.112Z,101048.88
2023-05-02T07:29:48.464Z,101051.88
2023-05-02T07:32:17.520Z,101035.47
2023-05-02T07:34:47.239Z,101040.94
2023-05-02T07:37:16.375Z,101033.59
2023-05-02T07:39:44.375Z,101030.59
2023-05-02T07:42:12.526Z,101025.56
2023-05-02T07:44:40.557Z,101031.38
2023-05-02T07:47:10.005Z,101024.06
2023-05-02T07:49:37.600Z,101026.50
2023-05-02T07:52:07.377Z,101023.88
2023-05-02T07:54:36.479Z,101036.25
2023-05-02T07:57:06.511Z,101027.19
2023-05-02T07:59:34.030Z,101018.44
2023-05-02T08:02:02.126Z,101024.38
2023-05-02T08:04:30.874Z,101027.34
2023-05-02T08:06:59.858Z,101018.56
2023-05-02T08:09:28.015Z,101027.94
2023-05-02T08:11:55.542Z,101019.09
2023-05-02T08:14:24.152Z,101020.41
2023-05-02T08:16:52.180Z,101011.78
2023-05-02T08:19:19.639Z,101027.00
2023-05-02T08:21:48.092Z,101020.44
2023-05-02T08:24:16.224Z,101028.31
2023-05-02T08:26:46.129Z,101032.28
2023-05-02T08:29:13.653Z,101030.19
2023-05-02T08:31:42.859Z,101032.78
2023-05-02T08:34:10.661Z,101040.97
2023-05-02T08:36:39.446Z,101028.22
2023-05-02T08:39:08.779Z,101039.44
2023-05-02T08:41:37.598Z,101037.09
2023-05-02T08:44:07.228Z,101051.38
2023-05-02T08:46:38.892Z,101050.34
2023-05-02T08:49:08.303Z,101046.25
2023-05-02T08:51:36.668Z,101036.81
2023-05-02T08:54:06.398Z,101046.06
2023-05-02T08:56:35.190Z,101040.03
2023-05-02T08:59:04.561Z,101043.44
2023-05-02T09:01:33.586Z,101041.50
2023-05-02T09:04:03.497Z,101031.75
2023-05-02T09:06:31.495Z,101032.31
2023-05-02T09:09:01.814Z,101025.66
2023-05-02T09:12:03.713Z,101027.38
2023-05-02T09:14:33.533Z,101019.56
2023-05-02T09:17:02.110Z,101040.81
2023-05-02T09:19:30.016Z,101036.31
2023-05-02T09:22:04.623Z,101027.34
2023-05-02T09:24:34.777Z,101041.34
2023-05-02T09:27:04.793Z,101038.78
2023-05-02T09:29:38.642Z,101032.03
2023-05-02T09:32:07.478Z,101037.28
2023-05-02T09:34:35.109Z,101043.41
2023-05-02T09:37:07.469Z,101037.75
2023-05-02T09:39:35.312Z,101045.53
2023-05-02T09:42:04.672Z,101047.19
2023-05-02T09:44:41.693Z,101044.59
2023-05-02T09:47:10.820Z,101043.69
2023-05-02T09:49:42.185Z,101042.19
2023-05-02T09:52:17.639Z,101041.88
2023-05-02T09:54:51.539Z,101042.34
2023-05-02T09:57:19.644Z,101040.84
2023-05-02T10:14:52.939Z,101052.00
2023-05-02T10:17:23.760Z,101056.91
2023-05-02T10:20:09.339Z,101044.69
2023-05-02T10:22:37.862Z,101041.16
2023-05-02T10:25:07.859Z,101039.97
2023-05-02T10:27:35.756Z,101051.94
2023-05-02T10:30:18.479Z,101035.06
2023-05-02T10:32:48.747Z,101037.47
2023-05-02T10:35:17.626Z,101024.91
2023-05-02T10:37:47.179Z,101036.00
2023-05-02T10:40:16.554Z,101033.66
2023-05-02T10:42:52.256Z,101038.09
2023-05-02T10:45:40.435Z,101041.44
2023-05-02T10:48:21.652Z,101042.41
2023-05-02T10:50:53.408Z,101038.34
2023-05-02T10:53:27.459Z,101042.06
2023-05-02T10:56:15.180Z,101052.63
2023-05-02T10:58:47.579Z,101040.22
2023-05-02T11:01:28.662Z,101036.22
2023-05-02T11:04:00.503Z,101042.06
2023-05-02T11:06:30.552Z,101049.88
2023-05-02T11:09:16.883Z,101033.97
2023-05-02T11:14:40.003Z,101029.28
2023-05-02T11:17:10.594Z,101026.47
2023-05-02T11:19:44.757Z,101018.91
2023-05-02T11:22:22.119Z,101014.75
2023-05-02T11:24:50.223Z,101018.41
2023-05-02T11:27:30.683Z,101009.53
2023-05-02T11:30:11.246Z,101009.53
2023-05-02T11:32:48.813Z,101006.03
2023-05-02T11:35:21.896Z,101011.34
2023-05-02T11:38:04.400Z,101010.00
2023-05-02T11:40:33.722Z,101008.34
2023-05-02T11:43:01.761Z,101004.22
2023-05-02T11:45:43.874Z,101002.63
2023-05-02T11:48:17.572Z,100991.16
2023-05-02T11:51:08.350Z,101006.38
2023-05-02T11:53:36.160Z,101009.66
2023-05-02T11:56:05.093Z,101026.00
2023-05-02T11:58:36.236Z,101042.81
2023-05-02T12:01:18.188Z,101034.63
2023-05-02T12:06:31.944Z,101023.81
2023-05-02T12:09:11.922Z,101029.66
2023-05-02T12:11:41.850Z,101027.38
2023-05-02T12:14:34.129Z,101037.09
2023-05-02T12:17:04.289Z,101027.53
2023-05-02T12:19:34.016Z,101023.88
2023-05-02T12:22:02.249Z,101023.50
2023-05-02T12:24:30.921Z,101024.88
2023-05-02T12:27:15.177Z,101014.69
2023-05-02T12:29:48.126Z,101017.00
2023-05-02T12:32:17.529Z,101015.97
2023-05-02T12:34:45.050Z,101013.53
2023-05-02T12:37:13.244Z,101019.03
2023-05-02T12:39:43.159Z,101025.41
2023-05-02T12:42:13.543Z,101017.53
2023-05-02T12:44:43.049Z,101015.59
2023-05-02T12:47:18.137Z,101025.22
2023-05-02T12:49:57.662Z,101027.84
2023-05-02T12:52:52.041Z,101027.53
2023-05-02T12:55:32.662Z,101023.56
2023-05-02T13:00:53.701Z,101020.28
2023-05-02T13:03:23.390Z,101009.53
2023-05-02T13:05:58.505Z,101006.09
2023-05-02T13:50:10.468Z,100969.47
2023-05-02T13:52:47.743Z,100973.59
2023-05-02T13:55:22.958Z,100971.47
2023-05-02T13:57:51.463Z,100976.75
2023-05-02T14:00:23.005Z,100976.28
2023-05-02T14:02:57.655Z,100974.94
2023-05-02T14:05:25.515Z,100954.50
2023-05-02T14:07:52.955Z,100961.13
2023-05-02T14:10:21.546Z,100961.00
2023-05-02T14:12:55.888Z,100952.69
2023-05-02T14:15:25.886Z,100952.88
2023-05-02T14:18:02.628Z,100956.53
2023-05-02T14:20:32.132Z,100950.22
2023-05-02T14:23:13.970Z,100956.78
2023-05-02T14:25:46.325Z,100952.09
2023-05-02T14:28:14.966Z,100937.47
2023-05-02T14:30:42.404Z,100940.63
2023-05-02T14:33:09.838Z,100936.63
2023-05-02T14:35:38.220Z,100934.13
2023-05-02T14:53:11.418Z,100911.81
2023-05-02T14:55:41.683Z,100906.16
2023-05-02T14:58:11.558Z,100901.81
2023-05-02T15:00:49.901Z,100903.63
2023-05-02T15:03:26.434Z,100906.91
2023-05-02T15:06:03.223Z,100907.50
2023-05-02T15:08:35.128Z,100899.19
2023-05-02T15:11:06.406Z,100899.00
2023-05-02T15:13:37.759Z,100908.91
2023-05-02T16:02:56.229Z,100899.38
2023-05-02T16:05:49.463Z,100896.31
2023-05-02T16:08:28.660Z,100890.56
2023-05-02T16:11:04.395Z,100893.38
2023-05-02T16:13:32.263Z,100885.72
2023-05-02T16:16:08.681Z,100893.75
2023-05-02T16:18:40.428Z,100892.13
2023-05-02T16:21:08.775Z,100896.47
2023-05-02T16:23:50.542Z,100880.88
2023-05-02T16:26:22.248Z,100865.16
2023-05-02T16:28:59.460Z,100859.00
2023-05-02T16:39:21.956Z,100859.19
2023-05-02T16:41:52.483Z,100851.66
2023-05-02T16:44:26.150Z,100835.22
2023-05-02T16:46:54.168Z,100819.81
2023-05-02T16:49:29.767Z,100830.84
2023-05-02T16:52:29.200Z,100843.34
2023-05-02T16:55:14.736Z,100829.19
2023-05-02T16:57:43.645Z,100820.22
2023-05-02T17:00:28.371Z,100816.19
2023-05-02T17:17:59.703Z,100733.59
2023-05-02T17:20:30.116Z,100721.91
2023-05-02T17:23:04.484Z,100725.63
2023-05-02T17:25:58.865Z,100719.50
2023-05-02T17:28:39.086Z,100729.50
2023-05-02T17:31:15.381Z,100744.59
2023-05-02T17:33:53.305Z,100750.84
2023-05-02T17:36:21.665Z,100740.03
2023-05-02T17:38:54.154Z,100752.91
2023-05-02T17:41:34.749Z,100765.31
2023-05-02T17:44:07.319Z,100770.72
2023-05-02T17:46:39.352Z,100769.88
2023-05-02T17:49:07.807Z,100763.31
2023-05-02T17:51:38.304Z,100766.88
2023-05-02T22:07:40.414Z,100874.63
2023-05-02T22:10:08.753Z,100881.44
2023-05-02T22:12:36.549Z,100891.69
2023-05-02T22:15:10.800Z,100904.78
2023-05-02T22:17:38.414Z,100901.09
2023-05-02T22:20:08.754Z,100903.31
2023-05-02T22:25:23.467Z,100892.63
2023-05-02T22:27:53.545Z,100886.16
2023-05-02T22:30:21.296Z,100889.19
2023-05-02T22:32:48.958Z,100886.41
2023-05-02T22:35:17.796Z,100885.25
2023-05-02T22:37:45.471Z,100897.22
2023-05-02T22:40:16.050Z,100911.94
2023-05-02T22:42:43.799Z,100926.16
2023-05-02T22:45:12.573Z,100935.03
2023-05-02T22:47:42.712Z,100934.19
2023-05-02T22:50:12.088Z,100916.03
2023-05-02T22:52:40.197Z,100911.75
2023-05-02T22:55:09.801Z,100911.97
2023-05-02T22:57:39.368Z,100915.03
2023-05-02T23:00:13.158Z,100918.38
2023-05-02T23:02:42.157Z,100925.56
2023-05-02T23:05:10.999Z,100933.31
2023-05-02T23:07:38.751Z,100930.97
2023-05-02T23:10:09.622Z,100935.31
2023-05-02T23:12:37.297Z,100939.34
2023-05-02T23:15:05.353Z,100942.34
2023-05-02T23:17:33.638Z,100947.84
2023-05-02T23:20:01.523Z,100963.41
2023-05-02T23:22:32.170Z,100980.41
2023-05-02T23:27:46.499Z,101006.97
2023-05-02T23:30:14.436Z,101019.53
2023-05-02T23:32:42.339Z,101045.97
2023-05-02T23:35:12.202Z,101064.59
2023-05-02T23:37:41.023Z,101072.59
2023-05-02T23:40:12.942Z,101073.69
2023-05-02T23:42:40.657Z,101032.84
2023-05-02T23:45:09.321Z,101005.38
2023-05-02T23:47:38.985Z,100977.84
2023-05-02T23:50:07.338Z,100977.84
2023-05-02T23:52:35.106Z,100985.34
2023-05-02T23:55:03.233Z,100971.44
2023-05-02T23:57:31.355Z,100971.44
2023-05-02T23:59:59.047Z,100979.50
